Vail, CO (81658)

6:25 PM MDT on October 25, 2014 (GMT -0600)
RAWS DOWD JUNCTION CO US | Change Station
CLOSE
Current Station
Personal Weather Station
Location: Vail, CO
Elevation: 9067 ft
Nearby Weather Stations

Elev 9067 ft 39.63 °N, 106.45 °W | Updated 29 minutes ago

Clear
Clear
61 °F
Feels Like 61 °F
N
6
Wind Variable Wind from WSW
Gusts 16.0 mph

Today
High -- | Low -- °F
--% Chance of Precip.
Yesterday
High -- | Low -- °F
Precip. -- in
7:26 AM 6:12 PM
Waxing Crescent, 5% visible
Pressure 30.17 in
Visibility 10.0 miles
Clouds Clear
Dew Point 16 °F
Humidity 17%
Rainfall 0.00 in
Snow Depth 3 in
UV 0 out of 12
Pollen 2.90 out of 12
Air Quality Not available.
Flu Activity Sporadic
METAR KEGE 252350Z 000000KT 10SM SKC 20/M02 A3017

More Conditions Fewer Conditions

Pressure 30.17 in
Visibility 10.0 miles
Clouds Clear
Dew Point 16 °F
Humidity 17%
Rainfall 0.00 in
Snow Depth 3 in
UV 0 out of 12
Pollen 2.90 out of 12
Air Quality Not available.
Flu Activity Sporadic
METAR KEGE 252350Z 000000KT 10SM SKC 20/M02 A3017

More Conditions Fewer Conditions

10-Day Weather Forecast

Almanac

Astronomy

Oct. 25, 2014 Rise Set
Actual Time 7:26 AM MDT 6:12 PM MDT
Civil Twilight 6:59 AM MDT 6:40 PM MDT
Nautical Twilight 6:27 AM MDT 7:11 PM MDT
Astronomical Twilight 5:56 AM MDT 7:42 PM MDT
Moon 9:08 AM MDT (10/25) 7:38 PM MDT (10/25)
Length of Visible Light 11h 41m
Length of Day
10h 46m
Tomorrow will be 2m 24s shorter.
Waxing Crescent, 5% of the Moon is Illuminated
Today
Waxing Crescent
Oct 30
First Quarter
Nov 6
Full
Nov 14
Last Quarter
Nov 22
New

Today's Extremes

State Highs State Lows

Community

WunderPhotos

Upload Photos

1,765,039 photos uploaded!

Nearby

Snow Depth

Station Depth Elevation
Mccoy Park 3 in 9480 ft
Kiln 0 in 9600 ft
Fremont Pass 0 in 11400 ft
Loveland Basin 2 in 11400 ft
Michigan Creek 0 in 10600 ft

Earthquake Activity

City Distance Mag. Time & Date
No recent earthquake activity has been reported nearby.
Minimum magnitude displayed is 2.5.

Coastal Water Temperatures

Place Temperature
No Stations Reporting

Nearby Weather Stations